If you wish to contribute or participate in the discussions about articles you are invited to join SKYbrary as a registered user

 Actions

Bhavnagar

From SKYbrary Wiki

VABV
Airport
ICAO: VABV
Summary
Name Bhavnagar
Region Asia and Pacific
Territory India IN.gif
Location Bhavnagar, Gujarat
Serving
Coordinates 21° 45' 9.59" N, 72° 11' 11.98" E
Runways
Designator Length Width Surface ROPS
7/25 1920 m6,299.213 ft
46 m150.919 ft
ASP yes/yes


METAR
Observation VABV 191600Z 19006KT 4000 FU NSC 30/03 Q1009
Station Bhaunagar
Date/Time 19 March 2019 16:00:00
Wind direction 190°
Wind speed 06 kts
Lowest cloud amount nil significant cloud
Temperature 30°C
Dew point 3°C
Humidity 17%
QNH 1009 hPa
Weather condition n/a

Bhavnagar Airport

ICAO: VABV IATA: BHU

Description

Bhavnagar Airport is located near Bhavnagar in the state of Gujarat, India.

Climatology

Hot, semi-arid/Steppe climate (Köppen climate classification BSh) - hot, sometimes extremely hot summers and mild to warm winters, with low annual precipitation.

Maps

Terrain

Loading map...

Airport Layout

Loading map...


Accidents & Serious Incidents at or in vicinity of VABV

None on SKYbrary